Flight Track Log - Related Links

Times and Time Zones

All times are in EDT time to prevent confusion due to time zone crossing. See the N140J flight status page for this flight to view local times or setup timezone preferences in your user account.

Time Position Orientation Groundspeed Altitude Reporting Facility
EDT Latitude Longitude Course Direction KTS MPH feet Rate Location/Type
02:39PM 27.6833 -80.3908 10° North 134 154 1,200  Level Miami Center
02:40PM 27.7356 -80.3806 10° North 129 148 1,900 700 Climbing Miami Center
02:41PM 27.7756 -80.3703 13° North 137 158 2,600 650 Climbing Miami Center
02:42PM 27.8111 -80.3642 North 142 163 3,200 650 Climbing Miami Center
02:43PM 27.8417 -80.3981 316° Northwest 137 158 3,900 750 Climbing Miami Center
02:44PM 27.8486 -80.4500 279° West 154 177 4,700 773 Climbing Miami Center
02:46PM 27.8558 -80.4994 279° West 154 177 5,600 864 Climbing Miami Center
02:47PM 27.8608 -80.5489 277° West 149 171 6,600 850 Climbing Miami Center
02:48PM 27.8703 -80.5914 284° West 149 171 7,300 750 Climbing Miami Center
02:49PM 27.8772 -80.6458 278° West 149 171 8,100 750 Climbing Miami Center
02:50PM 27.8842 -80.6953 279° West 154 177 8,800 700 Climbing Miami Center
02:51PM 27.8914 -80.7403 280° West 164 189 9,500 758 Climbing Miami Center
02:51PM 27.9000 -80.7667 290° West 157 181 10,000 857 Climbing Orlando TRACON
02:52PM 27.9000 -80.8000 270° West 154 177 10,600 722 Climbing Orlando TRACON
02:53PM 27.9167 -80.8667 286° West 160 184 11,300 636 Climbing Orlando TRACON
02:54PM 27.9167 -80.9167 270° West 165 190 12,000 600 Climbing Orlando TRACON
02:55PM 27.9333 -80.9667 291° West 170 196 12,500 526 Climbing Orlando TRACON
02:56PM 27.9500 -81.0000 300° West 171 197 13,000 526 Climbing Orlando TRACON
02:57PM 27.9833 -81.0333 319° Northwest 174 200 13,500 526 Climbing Orlando TRACON
02:58PM 28.0333 -81.0667 330° Northwest 176 203 14,000 238 Climbing Orlando TRACON
02:59PM 28.0833 -81.1000 330° Northwest 197 227 14,000  Level Orlando TRACON
03:00PM 28.1333 -81.1167 344° North 187 215 14,000  Level Orlando TRACON
03:01PM 28.1667 -81.1333 336° Northwest 186 214 14,000  Level Orlando TRACON
03:02PM 28.2167 -81.1500 344° North 179 206 14,000  Level Orlando TRACON
03:03PM 28.2667 -81.1667 344° North 174 200 14,000  Level Orlando TRACON
03:04PM 28.3000 -81.1833 336° Northwest 173 199 14,000 45 Level Orlando TRACON
03:05PM 28.3667 -81.2000 348° North 175 201 14,100 48 Climbing Orlando TRACON
03:06PM 28.4000 -81.2333 319° Northwest 186 214 14,100  Level Orlando TRACON
03:07PM 28.4500 -81.2667 330° Northwest 182 209 14,100  Level Orlando TRACON
03:08PM 28.4833 -81.3167 307° West 180 207 14,100  Level Orlando TRACON
03:09PM 28.5000 -81.3667 291° West 182 209 14,100  Level Orlando TRACON
03:10PM 28.5167 -81.4167 291° West 181 208 14,100  Level Orlando TRACON
03:11PM 28.5167 -81.4667 270° West 179 206 14,100  Level Orlando TRACON
03:12PM 28.5333 -81.5167 291° West 180 207 14,100  Level Orlando TRACON
03:13PM 28.5500 -81.5833 286° West 181 208 14,100  Level Orlando TRACON
03:14PM 28.5667 -81.6333 291° West 182 209 14,100  Level Orlando TRACON
03:15PM 28.5833 -81.7000 286° West 181 208 14,100  Level Orlando TRACON
03:16PM 28.6000 -81.7333 300° West 181 208 14,100 -50 Level Orlando TRACON
03:17PM 28.6333 -81.8000 300° West 182 209 14,000  Descending Orlando TRACON
03:19PM 28.6761 -81.9033 295° West 192 221 14,100 32 Climbing Jacksonville Center
03:20PM 28.6953 -81.9458 297° West 187 215 14,100  Level Jacksonville Center
03:21PM 28.7228 -81.9953 302° West 181 208 14,100  Level Jacksonville Center
03:22PM 28.7503 -82.0400 305° West 181 208 14,100  Level Jacksonville Center
03:23PM 28.7756 -82.0897 300° West 181 208 14,100  Level Jacksonville Center
03:24PM 28.8050 -82.1344 307° West 181 208 14,100  Level Jacksonville Center
03:25PM 28.8344 -82.1839 304° West 181 208 14,100  Level Jacksonville Center
03:26PM 28.8703 -82.2239 316° Northwest 181 208 14,100  Level Jacksonville Center
03:27PM 28.9039 -82.2642 314° West 181 208 14,100  Level Jacksonville Center
03:28PM 28.9375 -82.3114 309° West 181 208 14,100  Level Jacksonville Center
03:29PM 28.9772 -82.3514 319° Northwest 186 214 14,100  Level Jacksonville Center
03:30PM 29.0131 -82.3917 315° West 186 214 14,100  Level Jacksonville Center
03:31PM 29.0506 -82.4294 319° Northwest 181 208 14,100  Level Jacksonville Center
03:32PM 29.0883 -82.4697 317° Northwest 181 208 14,100  Level Jacksonville Center
03:33PM 29.1239 -82.5075 317° Northwest 175 201 14,100  Level Jacksonville Center
03:34PM 29.1575 -82.5503 312° West 170 196 14,100  Level Jacksonville Center
03:35PM 29.1889 -82.5953 309° West 175 201 14,100  Level Jacksonville Center
03:36PM 29.2100 -82.6475 295° West 175 201 14,100 -50 Level Jacksonville Center
03:37PM 29.2267 -82.7022 289° West 180 207 14,000 -50 Descending Jacksonville Center
03:38PM 29.2350 -82.7594 279° West 185 213 14,000  Level Jacksonville Center
03:39PM 29.2436 -82.8164 280° West 185 213 14,000  Level Jacksonville Center
03:40PM 29.2478 -82.8736 275° West 185 213 14,000  Level Jacksonville Center
03:41PM 29.2478 -82.9331 270° West 180 207 14,000  Level Jacksonville Center
03:42PM 29.2478 -82.9900 270° West 180 207 14,000  Level Jacksonville Center
03:43PM 29.2475 -83.0450 270° West 180 207 14,000  Level Jacksonville Center
03:44PM 29.2497 -83.1019 273° West 180 207 14,000  Level Jacksonville Center
03:45PM 29.2536 -83.1567 275° West 180 207 14,000  Level Jacksonville Center
03:46PM 29.2597 -83.2139 277° West 180 207 14,000  Level Jacksonville Center
03:47PM 29.2639 -83.2711 275° West 180 207 14,000  Level Jacksonville Center
03:48PM 29.2803 -83.3258 289° West 180 207 14,000  Level Jacksonville Center
03:49PM 29.3011 -83.3783 294° West 180 207 14,000  Level Jacksonville Center
03:50PM 29.3197 -83.4333 291° West 186 214 14,000  Level Jacksonville Center
03:51PM 29.3403 -83.4833 295° West 186 214 14,000  Level Jacksonville Center
03:52PM 29.3589 -83.5383 291° West 186 214 14,000  Level Jacksonville Center
03:53PM 29.3794 -83.5933 293° West 186 214 14,000  Level Jacksonville Center
03:54PM 29.3978 -83.6458 292° West 186 214 14,000  Level Jacksonville Center
03:55PM 29.4183 -83.6961 295° West 186 214 14,000  Level Jacksonville Center
03:56PM 29.4369 -83.7464 293° West 181 208 14,000  Level Jacksonville Center
03:57PM 29.4553 -83.8014 291° West 181 208 14,000  Level Jacksonville Center
03:58PM 29.4739 -83.8492 294° West 176 203 14,000  Level Jacksonville Center
03:59PM 29.4922 -83.9019 292° West 171 197 14,000  Level Jacksonville Center
04:00PM 29.5000 -83.9567 279° West 171 197 14,000  Level Jacksonville Center
04:01PM 29.4975 -84.0117 267° West 165 190 14,000  Level Jacksonville Center
04:02PM 29.4969 -84.0689 269° West 165 190 14,000  Level Jacksonville Center
04:03PM 29.4944 -84.1214 267° West 170 196 14,000  Level Jacksonville Center
04:04PM 29.4958 -84.1761 272° West 175 201 14,000  Level Jacksonville Center
04:05PM 29.4953 -84.2311 269° West 180 207 14,000  Level Jacksonville Center
04:06PM 29.4969 -84.2836 272° West 175 201 14,000  Level Jacksonville Center
04:07PM 29.4964 -84.3408 269° West 175 201 14,000  Level Jacksonville Center
04:08PM 29.4956 -84.3933 269° West 175 201 14,000  Level Jacksonville Center
04:09PM 29.4950 -84.4483 269° West 175 201 14,000  Level Jacksonville Center
04:10PM 29.4986 -84.5031 274° West 175 201 14,000  Level Jacksonville Center
04:11PM 29.5000 -84.5556 272° West 175 201 14,000  Level Jacksonville Center
04:12PM 29.5014 -84.6106 272° West 175 201 14,000  Level Jacksonville Center
04:13PM 29.5025 -84.6656 271° West 175 201 14,000  Level Jacksonville Center
04:14PM 29.5019 -84.7181 269° West 175 201 14,000 -100 Level Jacksonville Center
04:15PM 29.5075 -84.7681 277° West 175 201 13,800 -200 Descending Jacksonville Center
04:16PM 29.5150 -84.8256 279° West 180 207 13,600 -250 Descending Jacksonville Center
04:17PM 29.5244 -84.8831 281° West 180 207 13,300 -350 Descending Jacksonville Center
04:18PM 29.5339 -84.9428 280° West 180 207 12,900 -400 Descending Jacksonville Center
04:19PM 29.5456 -85.0028 283° West 185 213 12,500 -400 Descending Jacksonville Center
04:20PM 29.5550 -85.0603 281° West 185 213 12,100 -350 Descending Jacksonville Center
04:21PM 29.5644 -85.1178 281° West 185 213 11,800 -300 Descending Jacksonville Center
04:23PM 29.5513 -85.1995 260° West  Level FlightAware Approximate
04:30PM 29.4890 -85.5809 259° West  Level FlightAware Approximate
04:31PM 29.4801 -85.6353 259° West  Level FlightAware Approximate
04:32PM 29.4711 -85.6898 259° West  Level FlightAware Approximate
04:33PM 29.4620 -85.7442 259° West  Level FlightAware Approximate
04:34PM 29.4530 -85.7986 259° West  Level FlightAware Approximate
04:35PM 29.4439 -85.8532 259° West  Level FlightAware Approximate
04:36PM 29.4349 -85.9076 259° West  Level FlightAware Approximate
04:37PM 29.4719 -85.9295 344° North  Level FlightAware Approximate
04:38PM 29.5138 -85.9561 327° Northwest  Level FlightAware Approximate
04:39PM 29.5546 -85.9856 337° Northwest  Level FlightAware Approximate
04:40PM 29.5988 -86.0077 337° Northwest  Level FlightAware Approximate
04:41PM 29.6430 -86.0298 337° Northwest  Level FlightAware Approximate
04:42PM 29.6872 -86.0521 334° Northwest  Level FlightAware Approximate
04:43PM 29.7306 -86.0762 334° Northwest  Level FlightAware Approximate
04:44PM 29.7741 -86.1004 334° Northwest  Level FlightAware Approximate
04:45PM 29.8175 -86.1245 334° Northwest  Level FlightAware Approximate
04:46PM 29.8603 -86.1502 332° Northwest  Level FlightAware Approximate
04:47PM 29.9027 -86.1767 332° Northwest  Level FlightAware Approximate
04:48PM 29.9451 -86.2032 332° Northwest  Level FlightAware Approximate
04:49PM 29.9877 -86.2293 333° Northwest  Level FlightAware Approximate
04:50PM 30.0305 -86.2549 333° Northwest  Level FlightAware Approximate
04:51PM 30.0733 -86.2806 333° Northwest  Level FlightAware Approximate
04:52PM 30.1161 -86.3063 333° Northwest  Level FlightAware Approximate
04:53PM 30.1594 -86.3309 335° Northwest  Level FlightAware Approximate
04:54PM 30.2030 -86.3546 335° Northwest  Level FlightAware Approximate
04:55PM 30.2467 -86.3784 335° Northwest  Level FlightAware Approximate
04:56PM 30.2903 -86.4023 335° Northwest  Level FlightAware Approximate
04:57PM 30.3336 -86.4268 333° Northwest  Level FlightAware Approximate
04:58PM 30.3764 -86.4525 333° Northwest  Level FlightAware Approximate

Login

Don't have an account? Register now (free) for customized features, flight alerts, and more!